sensor_id;sensor_type;location;lat;lon;timestamp;P1;durP1;ratioP1;P2;durP2;ratioP2
61336;SDS011;47212;41.326;2.104;2023-07-20T00:02:29;9.55;;;5.28;;
61336;SDS011;47212;41.326;2.104;2023-07-20T00:07:50;11.63;;;4.93;;
61336;SDS011;47212;41.326;2.104;2023-07-20T00:13:00;10.27;;;5.40;;
61336;SDS011;47212;41.326;2.104;2023-07-20T00:18:12;7.50;;;4.53;;
61336;SDS011;47212;41.326;2.104;2023-07-20T00:23:24;8.70;;;4.97;;
61336;SDS011;47212;41.326;2.104;2023-07-20T00:28:28;11.65;;;4.72;;
61336;SDS011;47212;41.326;2.104;2023-07-20T00:33:33;10.00;;;4.97;;
61336;SDS011;47212;41.326;2.104;2023-07-20T00:38:42;11.88;;;4.93;;
61336;SDS011;47212;41.326;2.104;2023-07-20T00:43:47;11.52;;;5.45;;
61336;SDS011;47212;41.326;2.104;2023-07-20T00:49:00;7.70;;;4.70;;
61336;SDS011;47212;41.326;2.104;2023-07-20T00:54:07;9.38;;;4.70;;
61336;SDS011;47212;41.326;2.104;2023-07-20T00:59:25;7.75;;;4.75;;
61336;SDS011;47212;41.326;2.104;2023-07-20T01:05:10;12.73;;;4.97;;
61336;SDS011;47212;41.326;2.104;2023-07-20T01:10:25;7.00;;;4.45;;
61336;SDS011;47212;41.326;2.104;2023-07-20T01:16:01;8.55;;;4.43;;
61336;SDS011;47212;41.326;2.104;2023-07-20T01:21:13;8.93;;;4.32;;
61336;SDS011;47212;41.326;2.104;2023-07-20T01:32:24;9.47;;;5.17;;
61336;SDS011;47212;41.326;2.104;2023-07-20T01:37:33;10.60;;;5.05;;
61336;SDS011;47212;41.326;2.104;2023-07-20T01:42:45;10.18;;;5.47;;
61336;SDS011;47212;41.326;2.104;2023-07-20T01:47:59;11.73;;;5.43;;
61336;SDS011;47212;41.326;2.104;2023-07-20T01:53:09;10.40;;;5.30;;
61336;SDS011;47212;41.326;2.104;2023-07-20T01:58:17;11.27;;;5.80;;
61336;SDS011;47212;41.326;2.104;2023-07-20T02:03:25;11.52;;;5.93;;
61336;SDS011;47212;41.326;2.104;2023-07-20T02:08:29;12.70;;;6.55;;
61336;SDS011;47212;41.326;2.104;2023-07-20T02:13:34;8.07;;;5.03;;
61336;SDS011;47212;41.326;2.104;2023-07-20T02:18:47;10.80;;;5.82;;
61336;SDS011;47212;41.326;2.104;2023-07-20T02:24:00;13.02;;;6.15;;
61336;SDS011;47212;41.326;2.104;2023-07-20T02:34:18;8.55;;;4.88;;
61336;SDS011;47212;41.326;2.104;2023-07-20T02:39:28;11.52;;;6.65;;
61336;SDS011;47212;41.326;2.104;2023-07-20T02:44:37;14.63;;;6.50;;
61336;SDS011;47212;41.326;2.104;2023-07-20T02:55:29;11.20;;;6.32;;
61336;SDS011;47212;41.326;2.104;2023-07-20T03:00:34;8.15;;;5.30;;
61336;SDS011;47212;41.326;2.104;2023-07-20T03:05:43;19.80;;;7.20;;
61336;SDS011;47212;41.326;2.104;2023-07-20T03:11:03;12.93;;;6.88;;
61336;SDS011;47212;41.326;2.104;2023-07-20T03:16:16;11.32;;;5.88;;
61336;SDS011;47212;41.326;2.104;2023-07-20T03:21:28;14.00;;;6.95;;
61336;SDS011;47212;41.326;2.104;2023-07-20T03:26:37;11.70;;;5.90;;
61336;SDS011;47212;41.326;2.104;2023-07-20T03:31:46;6.72;;;5.10;;
61336;SDS011;47212;41.326;2.104;2023-07-20T03:37:05;16.60;;;6.35;;
61336;SDS011;47212;41.326;2.104;2023-07-20T03:42:13;11.43;;;7.13;;
61336;SDS011;47212;41.326;2.104;2023-07-20T03:47:23;11.95;;;7.05;;
61336;SDS011;47212;41.326;2.104;2023-07-20T03:52:28;13.00;;;6.63;;
61336;SDS011;47212;41.326;2.104;2023-07-20T03:57:37;10.88;;;6.15;;
61336;SDS011;47212;41.326;2.104;2023-07-20T04:02:48;12.57;;;6.47;;
61336;SDS011;47212;41.326;2.104;2023-07-20T04:08:01;7.25;;;5.28;;
61336;SDS011;47212;41.326;2.104;2023-07-20T04:13:04;14.60;;;6.20;;
61336;SDS011;47212;41.326;2.104;2023-07-20T04:32:50;16.70;;;7.53;;
61336;SDS011;47212;41.326;2.104;2023-07-20T04:37:55;13.48;;;7.32;;
61336;SDS011;47212;41.326;2.104;2023-07-20T04:43:01;24.75;;;8.90;;
61336;SDS011;47212;41.326;2.104;2023-07-20T04:48:19;14.63;;;6.53;;
61336;SDS011;47212;41.326;2.104;2023-07-20T04:53:26;12.48;;;7.00;;
61336;SDS011;47212;41.326;2.104;2023-07-20T04:58:58;16.70;;;7.80;;
61336;SDS011;47212;41.326;2.104;2023-07-20T05:04:05;16.60;;;7.25;;
61336;SDS011;47212;41.326;2.104;2023-07-20T05:09:21;12.73;;;7.40;;
61336;SDS011;47212;41.326;2.104;2023-07-20T05:14:36;17.67;;;7.57;;
61336;SDS011;47212;41.326;2.104;2023-07-20T05:19:39;16.52;;;7.43;;
61336;SDS011;47212;41.326;2.104;2023-07-20T05:24:47;19.27;;;7.30;;
61336;SDS011;47212;41.326;2.104;2023-07-20T05:29:50;7.88;;;5.50;;
61336;SDS011;47212;41.326;2.104;2023-07-20T05:34:59;8.93;;;5.22;;
61336;SDS011;47212;41.326;2.104;2023-07-20T05:40:08;18.52;;;6.65;;
61336;SDS011;47212;41.326;2.104;2023-07-20T05:45:16;11.45;;;5.88;;
61336;SDS011;47212;41.326;2.104;2023-07-20T05:50:23;11.40;;;6.35;;
61336;SDS011;47212;41.326;2.104;2023-07-20T05:55:31;12.45;;;6.78;;
61336;SDS011;47212;41.326;2.104;2023-07-20T06:00:37;15.43;;;6.03;;
61336;SDS011;47212;41.326;2.104;2023-07-20T06:05:39;11.40;;;6.43;;
61336;SDS011;47212;41.326;2.104;2023-07-20T06:10:43;10.65;;;6.22;;
61336;SDS011;47212;41.326;2.104;2023-07-20T06:15:47;19.00;;;6.78;;
61336;SDS011;47212;41.326;2.104;2023-07-20T06:20:57;17.60;;;7.97;;
61336;SDS011;47212;41.326;2.104;2023-07-20T06:26:00;14.02;;;8.32;;
61336;SDS011;47212;41.326;2.104;2023-07-20T06:31:06;21.08;;;8.30;;
61336;SDS011;47212;41.326;2.104;2023-07-20T06:36:08;16.10;;;8.07;;
61336;SDS011;47212;41.326;2.104;2023-07-20T06:41:16;13.05;;;7.28;;
61336;SDS011;47212;41.326;2.104;2023-07-20T06:46:39;11.07;;;6.07;;
61336;SDS011;47212;41.326;2.104;2023-07-20T06:51:44;10.40;;;6.13;;
61336;SDS011;47212;41.326;2.104;2023-07-20T06:56:50;11.20;;;6.15;;
61336;SDS011;47212;41.326;2.104;2023-07-20T07:01:58;8.57;;;5.88;;
61336;SDS011;47212;41.326;2.104;2023-07-20T07:07:05;9.02;;;5.18;;
61336;SDS011;47212;41.326;2.104;2023-07-20T07:12:12;8.27;;;4.05;;
61336;SDS011;47212;41.326;2.104;2023-07-20T07:17:21;9.63;;;5.38;;
61336;SDS011;47212;41.326;2.104;2023-07-20T07:22:35;9.38;;;5.03;;
61336;SDS011;47212;41.326;2.104;2023-07-20T07:27:39;10.73;;;5.15;;
61336;SDS011;47212;41.326;2.104;2023-07-20T07:32:42;10.68;;;5.38;;
61336;SDS011;47212;41.326;2.104;2023-07-20T07:37:45;9.63;;;5.15;;
61336;SDS011;47212;41.326;2.104;2023-07-20T07:43:11;8.57;;;4.80;;
61336;SDS011;47212;41.326;2.104;2023-07-20T07:48:16;11.70;;;4.93;;
61336;SDS011;47212;41.326;2.104;2023-07-20T07:53:26;7.75;;;4.38;;
61336;SDS011;47212;41.326;2.104;2023-07-20T07:58:30;9.77;;;4.82;;
61336;SDS011;47212;41.326;2.104;2023-07-20T08:03:36;10.23;;;4.90;;
61336;SDS011;47212;41.326;2.104;2023-07-20T08:08:41;10.30;;;4.63;;
61336;SDS011;47212;41.326;2.104;2023-07-20T08:14:00;9.48;;;4.53;;
61336;SDS011;47212;41.326;2.104;2023-07-20T08:19:05;8.40;;;4.85;;
61336;SDS011;47212;41.326;2.104;2023-07-20T08:24:08;8.02;;;4.95;;
61336;SDS011;47212;41.326;2.104;2023-07-20T08:29:13;13.27;;;5.43;;
61336;SDS011;47212;41.326;2.104;2023-07-20T08:34:17;9.18;;;5.60;;
61336;SDS011;47212;41.326;2.104;2023-07-20T08:39:32;10.68;;;5.20;;
61336;SDS011;47212;41.326;2.104;2023-07-20T08:44:39;11.75;;;5.50;;
61336;SDS011;47212;41.326;2.104;2023-07-20T08:49:43;10.50;;;5.18;;
61336;SDS011;47212;41.326;2.104;2023-07-20T08:54:50;12.60;;;5.25;;
61336;SDS011;47212;41.326;2.104;2023-07-20T09:00:03;7.93;;;4.65;;
61336;SDS011;47212;41.326;2.104;2023-07-20T09:05:15;10.85;;;4.97;;
61336;SDS011;47212;41.326;2.104;2023-07-20T09:10:25;8.82;;;5.25;;
61336;SDS011;47212;41.326;2.104;2023-07-20T09:15:36;10.85;;;5.22;;
61336;SDS011;47212;41.326;2.104;2023-07-20T09:20:39;7.78;;;4.78;;
61336;SDS011;47212;41.326;2.104;2023-07-20T09:25:48;10.93;;;6.05;;
61336;SDS011;47212;41.326;2.104;2023-07-20T09:30:54;9.23;;;5.13;;
61336;SDS011;47212;41.326;2.104;2023-07-20T09:36:02;10.48;;;5.38;;
61336;SDS011;47212;41.326;2.104;2023-07-20T09:41:42;12.55;;;6.03;;
61336;SDS011;47212;41.326;2.104;2023-07-20T09:46:49;14.40;;;5.40;;
61336;SDS011;47212;41.326;2.104;2023-07-20T09:52:15;11.20;;;5.13;;
61336;SDS011;47212;41.326;2.104;2023-07-20T09:57:28;10.15;;;5.53;;
61336;SDS011;47212;41.326;2.104;2023-07-20T10:02:33;8.70;;;4.97;;
61336;SDS011;47212;41.326;2.104;2023-07-20T10:07:49;13.60;;;6.07;;
61336;SDS011;47212;41.326;2.104;2023-07-20T10:13:21;13.93;;;5.88;;
61336;SDS011;47212;41.326;2.104;2023-07-20T10:18:35;8.82;;;5.45;;
61336;SDS011;47212;41.326;2.104;2023-07-20T10:23:48;11.17;;;5.87;;
61336;SDS011;47212;41.326;2.104;2023-07-20T10:28:51;10.38;;;5.97;;
61336;SDS011;47212;41.326;2.104;2023-07-20T10:33:58;7.85;;;4.93;;
61336;SDS011;47212;41.326;2.104;2023-07-20T10:39:03;8.50;;;4.68;;
61336;SDS011;47212;41.326;2.104;2023-07-20T10:44:29;11.60;;;6.32;;
61336;SDS011;47212;41.326;2.104;2023-07-20T10:49:34;12.40;;;5.70;;
61336;SDS011;47212;41.326;2.104;2023-07-20T10:55:38;10.07;;;5.25;;
61336;SDS011;47212;41.326;2.104;2023-07-20T11:01:00;9.90;;;5.20;;
61336;SDS011;47212;41.326;2.104;2023-07-20T11:11:31;9.73;;;5.10;;
61336;SDS011;47212;41.326;2.104;2023-07-20T11:16:43;8.48;;;5.30;;
61336;SDS011;47212;41.326;2.104;2023-07-20T11:21:55;7.40;;;4.57;;
61336;SDS011;47212;41.326;2.104;2023-07-20T11:27:19;11.18;;;5.03;;
61336;SDS011;47212;41.326;2.104;2023-07-20T11:32:24;9.55;;;5.10;;
61336;SDS011;47212;41.326;2.104;2023-07-20T11:37:30;7.97;;;4.75;;
61336;SDS011;47212;41.326;2.104;2023-07-20T11:42:37;6.40;;;4.70;;
61336;SDS011;47212;41.326;2.104;2023-07-20T11:47:44;11.45;;;5.18;;
61336;SDS011;47212;41.326;2.104;2023-07-20T11:52:51;10.45;;;5.10;;
61336;SDS011;47212;41.326;2.104;2023-07-20T11:58:02;9.27;;;4.82;;
61336;SDS011;47212;41.326;2.104;2023-07-20T12:03:14;12.25;;;4.60;;
61336;SDS011;47212;41.326;2.104;2023-07-20T12:08:19;7.75;;;4.53;;
61336;SDS011;47212;41.326;2.104;2023-07-20T12:13:50;9.50;;;4.68;;
61336;SDS011;47212;41.326;2.104;2023-07-20T12:19:00;7.37;;;4.53;;
61336;SDS011;47212;41.326;2.104;2023-07-20T12:24:31;8.55;;;4.45;;
61336;SDS011;47212;41.326;2.104;2023-07-20T12:29:37;9.35;;;4.85;;
61336;SDS011;47212;41.326;2.104;2023-07-20T12:34:44;10.60;;;5.72;;
61336;SDS011;47212;41.326;2.104;2023-07-20T12:39:48;8.88;;;5.50;;
61336;SDS011;47212;41.326;2.104;2023-07-20T12:44:57;11.13;;;5.25;;
61336;SDS011;47212;41.326;2.104;2023-07-20T12:49:59;7.38;;;5.43;;
61336;SDS011;47212;41.326;2.104;2023-07-20T12:55:06;11.50;;;5.18;;
61336;SDS011;47212;41.326;2.104;2023-07-20T13:00:13;10.57;;;5.30;;
61336;SDS011;47212;41.326;2.104;2023-07-20T13:05:28;11.18;;;5.82;;
61336;SDS011;47212;41.326;2.104;2023-07-20T13:10:34;9.32;;;5.55;;
61336;SDS011;47212;41.326;2.104;2023-07-20T13:15:48;11.77;;;5.47;;
61336;SDS011;47212;41.326;2.104;2023-07-20T13:20:55;8.85;;;4.35;;
61336;SDS011;47212;41.326;2.104;2023-07-20T13:31:13;10.00;;;4.32;;
61336;SDS011;47212;41.326;2.104;2023-07-20T13:36:21;7.80;;;4.80;;
61336;SDS011;47212;41.326;2.104;2023-07-20T13:41:26;9.07;;;4.18;;
61336;SDS011;47212;41.326;2.104;2023-07-20T13:46:37;17.02;;;4.72;;
61336;SDS011;47212;41.326;2.104;2023-07-20T13:51:44;12.40;;;6.72;;
61336;SDS011;47212;41.326;2.104;2023-07-20T13:57:09;6.65;;;4.47;;
61336;SDS011;47212;41.326;2.104;2023-07-20T14:02:22;11.48;;;4.70;;
61336;SDS011;47212;41.326;2.104;2023-07-20T14:07:45;8.73;;;4.35;;
61336;SDS011;47212;41.326;2.104;2023-07-20T14:12:49;5.95;;;3.53;;
61336;SDS011;47212;41.326;2.104;2023-07-20T14:17:54;8.10;;;3.95;;
61336;SDS011;47212;41.326;2.104;2023-07-20T14:23:02;9.13;;;3.72;;
61336;SDS011;47212;41.326;2.104;2023-07-20T14:28:13;7.13;;;3.60;;
61336;SDS011;47212;41.326;2.104;2023-07-20T14:33:17;5.95;;;3.22;;
61336;SDS011;47212;41.326;2.104;2023-07-20T14:38:19;7.32;;;3.40;;
61336;SDS011;47212;41.326;2.104;2023-07-20T14:43:23;5.55;;;2.80;;
61336;SDS011;47212;41.326;2.104;2023-07-20T14:48:31;7.63;;;2.67;;
61336;SDS011;47212;41.326;2.104;2023-07-20T14:53:35;7.80;;;3.05;;
61336;SDS011;47212;41.326;2.104;2023-07-20T14:58:45;7.03;;;3.15;;
61336;SDS011;47212;41.326;2.104;2023-07-20T15:03:54;5.57;;;2.70;;
61336;SDS011;47212;41.326;2.104;2023-07-20T15:09:04;6.40;;;2.50;;
61336;SDS011;47212;41.326;2.104;2023-07-20T15:14:08;3.78;;;2.50;;
61336;SDS011;47212;41.326;2.104;2023-07-20T15:19:17;3.95;;;2.30;;
61336;SDS011;47212;41.326;2.104;2023-07-20T15:24:21;3.65;;;2.05;;
61336;SDS011;47212;41.326;2.104;2023-07-20T15:29:23;6.22;;;2.65;;
61336;SDS011;47212;41.326;2.104;2023-07-20T15:34:47;5.05;;;2.30;;
61336;SDS011;47212;41.326;2.104;2023-07-20T15:39:52;4.00;;;2.30;;
61336;SDS011;47212;41.326;2.104;2023-07-20T15:44:58;4.07;;;2.50;;
61336;SDS011;47212;41.326;2.104;2023-07-20T15:50:05;3.35;;;2.25;;
61336;SDS011;47212;41.326;2.104;2023-07-20T15:55:10;3.50;;;2.05;;
61336;SDS011;47212;41.326;2.104;2023-07-20T16:00:17;4.45;;;2.50;;
61336;SDS011;47212;41.326;2.104;2023-07-20T16:05:21;5.22;;;2.75;;
61336;SDS011;47212;41.326;2.104;2023-07-20T16:10:25;3.63;;;2.28;;
61336;SDS011;47212;41.326;2.104;2023-07-20T16:15:30;4.15;;;2.60;;
61336;SDS011;47212;41.326;2.104;2023-07-20T16:20:37;3.75;;;2.58;;
61336;SDS011;47212;41.326;2.104;2023-07-20T16:25:40;4.35;;;2.97;;
61336;SDS011;47212;41.326;2.104;2023-07-20T16:30:43;5.70;;;2.70;;
61336;SDS011;47212;41.326;2.104;2023-07-20T16:35:50;6.43;;;3.08;;
61336;SDS011;47212;41.326;2.104;2023-07-20T16:40:59;6.15;;;2.53;;
61336;SDS011;47212;41.326;2.104;2023-07-20T16:46:07;5.03;;;2.97;;
61336;SDS011;47212;41.326;2.104;2023-07-20T16:51:21;4.65;;;2.58;;
61336;SDS011;47212;41.326;2.104;2023-07-20T16:56:26;8.23;;;2.95;;
61336;SDS011;47212;41.326;2.104;2023-07-20T17:01:35;5.20;;;2.78;;
61336;SDS011;47212;41.326;2.104;2023-07-20T17:06:44;8.43;;;3.00;;
61336;SDS011;47212;41.326;2.104;2023-07-20T17:11:50;5.55;;;3.00;;
61336;SDS011;47212;41.326;2.104;2023-07-20T17:16:54;5.65;;;2.90;;
61336;SDS011;47212;41.326;2.104;2023-07-20T17:21:57;4.40;;;2.38;;
61336;SDS011;47212;41.326;2.104;2023-07-20T17:27:20;6.78;;;2.95;;
61336;SDS011;47212;41.326;2.104;2023-07-20T17:32:22;5.57;;;2.70;;
61336;SDS011;47212;41.326;2.104;2023-07-20T17:37:33;5.10;;;3.03;;
61336;SDS011;47212;41.326;2.104;2023-07-20T17:42:41;7.13;;;2.95;;
61336;SDS011;47212;41.326;2.104;2023-07-20T17:47:47;6.57;;;3.78;;
61336;SDS011;47212;41.326;2.104;2023-07-20T17:52:52;4.97;;;2.70;;
61336;SDS011;47212;41.326;2.104;2023-07-20T17:57:59;7.10;;;2.90;;
61336;SDS011;47212;41.326;2.104;2023-07-20T18:03:08;7.57;;;2.88;;
61336;SDS011;47212;41.326;2.104;2023-07-20T18:08:16;6.18;;;3.33;;
61336;SDS011;47212;41.326;2.104;2023-07-20T18:13:21;5.63;;;2.90;;
61336;SDS011;47212;41.326;2.104;2023-07-20T18:18:32;6.35;;;2.88;;
61336;SDS011;47212;41.326;2.104;2023-07-20T18:28:52;6.63;;;3.00;;
61336;SDS011;47212;41.326;2.104;2023-07-20T18:33:56;8.82;;;3.65;;
61336;SDS011;47212;41.326;2.104;2023-07-20T18:39:01;7.55;;;3.30;;
61336;SDS011;47212;41.326;2.104;2023-07-20T18:44:06;8.30;;;3.45;;
61336;SDS011;47212;41.326;2.104;2023-07-20T18:49:10;12.13;;;3.50;;
61336;SDS011;47212;41.326;2.104;2023-07-20T18:54:21;8.40;;;3.63;;
61336;SDS011;47212;41.326;2.104;2023-07-20T18:59:23;8.43;;;3.60;;
61336;SDS011;47212;41.326;2.104;2023-07-20T19:04:28;9.25;;;3.63;;
61336;SDS011;47212;41.326;2.104;2023-07-20T19:09:31;9.98;;;5.10;;
61336;SDS011;47212;41.326;2.104;2023-07-20T19:14:39;7.45;;;3.75;;
61336;SDS011;47212;41.326;2.104;2023-07-20T19:19:41;7.93;;;3.70;;
61336;SDS011;47212;41.326;2.104;2023-07-20T19:24:52;9.40;;;3.67;;
61336;SDS011;47212;41.326;2.104;2023-07-20T19:30:03;7.88;;;4.10;;
61336;SDS011;47212;41.326;2.104;2023-07-20T19:35:16;10.68;;;4.28;;
61336;SDS011;47212;41.326;2.104;2023-07-20T19:40:31;10.77;;;4.50;;
61336;SDS011;47212;41.326;2.104;2023-07-20T19:46:02;10.88;;;3.97;;
61336;SDS011;47212;41.326;2.104;2023-07-20T19:51:08;8.68;;;4.47;;
61336;SDS011;47212;41.326;2.104;2023-07-20T19:56:16;11.23;;;6.35;;
61336;SDS011;47212;41.326;2.104;2023-07-20T20:01:29;11.50;;;6.43;;
61336;SDS011;47212;41.326;2.104;2023-07-20T20:12:16;9.10;;;4.25;;
61336;SDS011;47212;41.326;2.104;2023-07-20T20:17:23;9.55;;;4.07;;
61336;SDS011;47212;41.326;2.104;2023-07-20T20:22:26;16.38;;;4.63;;
61336;SDS011;47212;41.326;2.104;2023-07-20T20:27:33;10.98;;;4.53;;
61336;SDS011;47212;41.326;2.104;2023-07-20T20:32:50;7.82;;;3.70;;
61336;SDS011;47212;41.326;2.104;2023-07-20T20:38:31;8.65;;;4.20;;
61336;SDS011;47212;41.326;2.104;2023-07-20T20:43:38;15.00;;;4.43;;
61336;SDS011;47212;41.326;2.104;2023-07-20T20:48:44;10.43;;;3.97;;
61336;SDS011;47212;41.326;2.104;2023-07-20T20:53:48;14.43;;;4.55;;
61336;SDS011;47212;41.326;2.104;2023-07-20T20:58:53;8.63;;;4.05;;
61336;SDS011;47212;41.326;2.104;2023-07-20T21:04:00;18.23;;;4.65;;
61336;SDS011;47212;41.326;2.104;2023-07-20T21:09:04;13.95;;;4.47;;
61336;SDS011;47212;41.326;2.104;2023-07-20T21:14:08;12.02;;;4.65;;
61336;SDS011;47212;41.326;2.104;2023-07-20T21:19:13;8.35;;;4.10;;
61336;SDS011;47212;41.326;2.104;2023-07-20T21:24:23;14.18;;;4.85;;
61336;SDS011;47212;41.326;2.104;2023-07-20T21:29:34;14.57;;;4.40;;
61336;SDS011;47212;41.326;2.104;2023-07-20T21:34:37;9.73;;;4.30;;
61336;SDS011;47212;41.326;2.104;2023-07-20T21:39:41;8.60;;;3.80;;
61336;SDS011;47212;41.326;2.104;2023-07-20T21:44:48;9.02;;;3.95;;
61336;SDS011;47212;41.326;2.104;2023-07-20T21:49:50;5.38;;;3.42;;
61336;SDS011;47212;41.326;2.104;2023-07-20T21:54:54;10.52;;;6.20;;
61336;SDS011;47212;41.326;2.104;2023-07-20T22:00:07;8.80;;;6.03;;
61336;SDS011;47212;41.326;2.104;2023-07-20T22:05:20;12.50;;;5.65;;
61336;SDS011;47212;41.326;2.104;2023-07-20T22:10:25;9.05;;;4.70;;
61336;SDS011;47212;41.326;2.104;2023-07-20T22:15:39;10.70;;;5.35;;
61336;SDS011;47212;41.326;2.104;2023-07-20T22:20:45;11.43;;;4.40;;
61336;SDS011;47212;41.326;2.104;2023-07-20T22:25:49;9.30;;;4.15;;
61336;SDS011;47212;41.326;2.104;2023-07-20T22:30:58;8.35;;;3.53;;
61336;SDS011;47212;41.326;2.104;2023-07-20T22:36:01;8.32;;;4.00;;
61336;SDS011;47212;41.326;2.104;2023-07-20T22:41:09;10.15;;;4.90;;
61336;SDS011;47212;41.326;2.104;2023-07-20T22:46:23;11.77;;;4.65;;
61336;SDS011;47212;41.326;2.104;2023-07-20T22:51:28;8.07;;;4.13;;
61336;SDS011;47212;41.326;2.104;2023-07-20T23:02:12;7.75;;;3.97;;
61336;SDS011;47212;41.326;2.104;2023-07-20T23:07:29;9.00;;;4.30;;
61336;SDS011;47212;41.326;2.104;2023-07-20T23:12:49;11.50;;;4.35;;
61336;SDS011;47212;41.326;2.104;2023-07-20T23:18:20;14.27;;;8.50;;
61336;SDS011;47212;41.326;2.104;2023-07-20T23:23:51;7.35;;;5.38;;
61336;SDS011;47212;41.326;2.104;2023-07-20T23:28:56;9.52;;;4.55;;
61336;SDS011;47212;41.326;2.104;2023-07-20T23:34:07;9.15;;;4.22;;
61336;SDS011;47212;41.326;2.104;2023-07-20T23:39:12;9.90;;;3.90;;
61336;SDS011;47212;41.326;2.104;2023-07-20T23:44:16;13.32;;;4.05;;
61336;SDS011;47212;41.326;2.104;2023-07-20T23:49:21;10.50;;;4.28;;
61336;SDS011;47212;41.326;2.104;2023-07-20T23:54:26;7.97;;;3.80;;
61336;SDS011;47212;41.326;2.104;2023-07-20T23:59:35;6.03;;;3.90;;
